Aviation Digital Data Service (ADDS)

Output produced by METARs form (1603 UTC 22 September 2019)
found at http://www.aviationweather.gov/metar/data/
 
METAR text: WSSL 221600Z 10004KT 6000 NSC 28/23 Q1012
Conditions at: WSSL (SINGAPORE/SELETA, SG) observed 1600 UTC 22 September 2019
Temperature: 28.0°C (82°F)
Dewpoint: 23.0°C (73°F) [RH = 74%]
Pressure (altimeter): 29.88 inches Hg (1012.0 mb)
Winds: from the E (100 degrees) at 5 MPH (4 knots; 2.1 m/s)
Visibility: 4 miles ( 6 km)
Ceiling: at least 12,000 feet AGL
Clouds: sky clear below 12,000 feet AGL
Weather: no significant weather observed at this time

Forecast for: WSSL (SINGAPORE/SELETA, SG)
Text: TAF WSSL 221100Z 2212/2318 11010KT 2500 HZ FEW015 SCT020
Forecast period: 1200 UTC 22 September 2019 to 0200 UTC 23 September 2019
Forecast type: FROM: standard forecast or significant change
Winds: from the ESE (110 degrees) at 12 MPH (10 knots; 5.1 m/s)
Visibility: 1.55 miles (2.49 km)
Ceiling: at least 12,000 feet AGL
Clouds: few clouds at 1500 feet AGL
scattered clouds at 2000 feet AGL
Weather: HZ  (haze)
Text: BECMG 2302/2304 4000
Forecast period: 0200 to 1800 UTC 23 September 2019
Forecast type: BECOMING: Conditions expected to become as follows by 0400 UTC 23 September 2019
Winds: from the ESE (110 degrees) at 12 MPH (10 knots; 5.1 m/s)
Visibility: 2.49 miles (4.01 km)
Ceiling: at least 12,000 feet AGL
Clouds: few clouds at 1500 feet AGL
scattered clouds at 2000 feet AGL
Weather: HZ  (haze)